North Babylon, New York
Current Conditions -  °F | °C
As of 2:53 AM on Thursday 29 Jan 2015 (Local Time) from KFRG Reporting Station
Clear Clear  
Wind Chill: 20°   Ceiling: Unl
Heat Index: 20°   Visibility: 10mi
Dew Point:   Wind: 0mph
Humidity: 46%   Direction: NA
Pressure: 30.29"   Gusts: NA
Location:  40.74°N, 73.32°W
Report Text: KFRG 290753Z AUTO 00000KT 10SM CLR M07/M17 A3029 RMK AO2 SLP259 T10671167
Loading
Personal Weather Stations






























Interactive Weather Map New forecast layout! Learn more

10-Day Weather Forecast

Advertisements
Track Severe Weather on mobile